sensor_id;sensor_type;location;lat;lon;timestamp;pressure;altitude;pressure_sealevel;temperature;humidity
4398;BME280;2213;49.720;7.296;2022-08-19T00:02:07;97811.81;;;22.14;98.77
4398;BME280;2213;49.720;7.296;2022-08-19T00:04:36;97814.75;;;22.17;98.67
4398;BME280;2213;49.720;7.296;2022-08-19T00:07:06;97814.75;;;22.17;98.82
4398;BME280;2213;49.720;7.296;2022-08-19T00:09:36;97817.66;;;22.16;98.75
4398;BME280;2213;49.720;7.296;2022-08-19T00:12:05;97815.28;;;22.14;99.27
4398;BME280;2213;49.720;7.296;2022-08-19T00:14:37;97813.13;;;22.11;99.40
4398;BME280;2213;49.720;7.296;2022-08-19T00:17:08;97814.22;;;22.10;100.00
4398;BME280;2213;49.720;7.296;2022-08-19T00:19:37;97814.75;;;22.07;100.00
4398;BME280;2213;49.720;7.296;2022-08-19T00:22:06;97806.19;;;22.05;100.00
4398;BME280;2213;49.720;7.296;2022-08-19T00:24:35;97805.94;;;22.06;99.98
4398;BME280;2213;49.720;7.296;2022-08-19T00:27:05;97804.09;;;22.07;99.98
4398;BME280;2213;49.720;7.296;2022-08-19T00:29:54;97800.88;;;22.05;100.00
4398;BME280;2213;49.720;7.296;2022-08-19T00:32:23;97801.97;;;22.04;100.00
4398;BME280;2213;49.720;7.296;2022-08-19T00:34:53;97796.63;;;21.99;100.00
4398;BME280;2213;49.720;7.296;2022-08-19T00:37:23;97791.81;;;21.96;100.00
4398;BME280;2213;49.720;7.296;2022-08-19T00:39:54;97792.88;;;21.95;100.00
4398;BME280;2213;49.720;7.296;2022-08-19T00:42:24;97788.34;;;21.90;100.00
4398;BME280;2213;49.720;7.296;2022-08-19T00:44:57;97796.03;;;21.87;100.00
4398;BME280;2213;49.720;7.296;2022-08-19T00:47:26;97786.75;;;21.89;100.00
4398;BME280;2213;49.720;7.296;2022-08-19T00:49:57;97785.13;;;21.88;100.00
4398;BME280;2213;49.720;7.296;2022-08-19T00:52:31;97789.41;;;21.89;100.00
4398;BME280;2213;49.720;7.296;2022-08-19T00:55:04;97791.78;;;21.86;100.00
4398;BME280;2213;49.720;7.296;2022-08-19T00:57:38;97794.69;;;21.74;100.00
4398;BME280;2213;49.720;7.296;2022-08-19T01:00:15;97786.47;;;21.76;100.00
4398;BME280;2213;49.720;7.296;2022-08-19T01:02:44;97791.78;;;21.71;100.00
4398;BME280;2213;49.720;7.296;2022-08-19T01:05:19;97788.56;;;21.64;100.00
4398;BME280;2213;49.720;7.296;2022-08-19T01:07:50;97778.97;;;21.63;100.00
4398;BME280;2213;49.720;7.296;2022-08-19T01:10:23;97777.66;;;21.60;100.00
4398;BME280;2213;49.720;7.296;2022-08-19T01:12:55;97776.31;;;21.63;100.00
4398;BME280;2213;49.720;7.296;2022-08-19T01:15:32;97779.25;;;21.61;100.00
4398;BME280;2213;49.720;7.296;2022-08-19T01:18:08;97783.78;;;21.61;100.00
4398;BME280;2213;49.720;7.296;2022-08-19T01:20:38;97769.94;;;21.58;100.00
4398;BME280;2213;49.720;7.296;2022-08-19T01:23:10;97776.56;;;21.56;100.00
4398;BME280;2213;49.720;7.296;2022-08-19T01:25:46;97779.50;;;21.54;100.00
4398;BME280;2213;49.720;7.296;2022-08-19T01:28:22;97775.75;;;21.45;100.00
4398;BME280;2213;49.720;7.296;2022-08-19T01:31:06;97784.25;;;21.37;100.00
4398;BME280;2213;49.720;7.296;2022-08-19T01:33:56;97787.94;;;21.26;100.00
4398;BME280;2213;49.720;7.296;2022-08-19T01:36:31;97779.41;;;21.24;100.00
4398;BME280;2213;49.720;7.296;2022-08-19T01:39:06;97784.22;;;21.17;100.00
4398;BME280;2213;49.720;7.296;2022-08-19T01:41:35;97781.28;;;21.14;100.00
4398;BME280;2213;49.720;7.296;2022-08-19T01:44:05;97773.00;;;21.15;100.00
4398;BME280;2213;49.720;7.296;2022-08-19T01:46:47;97759.72;;;21.15;100.00
4398;BME280;2213;49.720;7.296;2022-08-19T01:49:18;97764.50;;;21.13;100.00
4398;BME280;2213;49.720;7.296;2022-08-19T01:51:49;97773.75;;;21.05;100.00
4398;BME280;2213;49.720;7.296;2022-08-19T01:54:23;97777.75;;;21.03;100.00
4398;BME280;2213;49.720;7.296;2022-08-19T01:57:01;97779.84;;;21.01;100.00
4398;BME280;2213;49.720;7.296;2022-08-19T01:59:31;97783.56;;;21.00;100.00
4398;BME280;2213;49.720;7.296;2022-08-19T02:02:00;97780.91;;;21.00;100.00
4398;BME280;2213;49.720;7.296;2022-08-19T02:04:29;97785.16;;;21.01;100.00
4398;BME280;2213;49.720;7.296;2022-08-19T02:06:58;97775.06;;;20.98;100.00
4398;BME280;2213;49.720;7.296;2022-08-19T02:09:30;97777.94;;;20.91;100.00
4398;BME280;2213;49.720;7.296;2022-08-19T02:11:59;97772.03;;;20.79;100.00
4398;BME280;2213;49.720;7.296;2022-08-19T02:14:29;97778.16;;;20.75;100.00
4398;BME280;2213;49.720;7.296;2022-08-19T02:16:58;97782.66;;;20.74;100.00
4398;BME280;2213;49.720;7.296;2022-08-19T02:19:29;97780.81;;;20.75;100.00
4398;BME280;2213;49.720;7.296;2022-08-19T02:22:00;97785.84;;;20.76;100.00
4398;BME280;2213;49.720;7.296;2022-08-19T02:24:30;97787.97;;;20.74;100.00
4398;BME280;2213;49.720;7.296;2022-08-19T02:26:59;97794.06;;;20.70;100.00
4398;BME280;2213;49.720;7.296;2022-08-19T02:29:27;97801.50;;;20.68;100.00
4398;BME280;2213;49.720;7.296;2022-08-19T02:31:56;97794.03;;;20.65;100.00
4398;BME280;2213;49.720;7.296;2022-08-19T02:34:25;97798.81;;;20.63;100.00
4398;BME280;2213;49.720;7.296;2022-08-19T02:36:53;97792.94;;;20.61;100.00
4398;BME280;2213;49.720;7.296;2022-08-19T02:39:30;97796.09;;;20.52;100.00
4398;BME280;2213;49.720;7.296;2022-08-19T02:41:58;97796.59;;;20.49;100.00
4398;BME280;2213;49.720;7.296;2022-08-19T02:44:27;97799.25;;;20.49;100.00
4398;BME280;2213;49.720;7.296;2022-08-19T02:46:58;97808.28;;;20.48;100.00
4398;BME280;2213;49.720;7.296;2022-08-19T02:49:27;97805.84;;;20.42;100.00
4398;BME280;2213;49.720;7.296;2022-08-19T02:52:01;97802.06;;;20.33;100.00
4398;BME280;2213;49.720;7.296;2022-08-19T02:54:31;97805.25;;;20.30;100.00
4398;BME280;2213;49.720;7.296;2022-08-19T02:57:01;97804.69;;;20.28;100.00
4398;BME280;2213;49.720;7.296;2022-08-19T02:59:31;97803.06;;;20.27;100.00
4398;BME280;2213;49.720;7.296;2022-08-19T03:02:00;97808.63;;;20.25;100.00
4398;BME280;2213;49.720;7.296;2022-08-19T03:04:28;97803.81;;;20.22;100.00
4398;BME280;2213;49.720;7.296;2022-08-19T03:06:57;97818.44;;;20.25;100.00
4398;BME280;2213;49.720;7.296;2022-08-19T03:09:39;97814.97;;;20.24;100.00
4398;BME280;2213;49.720;7.296;2022-08-19T03:12:10;97808.34;;;20.22;100.00
4398;BME280;2213;49.720;7.296;2022-08-19T03:14:39;97807.75;;;20.15;100.00
4398;BME280;2213;49.720;7.296;2022-08-19T03:17:09;97818.06;;;20.11;100.00
4398;BME280;2213;49.720;7.296;2022-08-19T03:19:37;97810.63;;;20.08;100.00
4398;BME280;2213;49.720;7.296;2022-08-19T03:22:06;97806.91;;;20.09;100.00
4398;BME280;2213;49.720;7.296;2022-08-19T03:24:35;97793.38;;;20.10;100.00
4398;BME280;2213;49.720;7.296;2022-08-19T03:27:07;97793.63;;;20.09;100.00
4398;BME280;2213;49.720;7.296;2022-08-19T03:29:37;97804.78;;;20.06;100.00
4398;BME280;2213;49.720;7.296;2022-08-19T03:32:10;97817.47;;;20.04;100.00
4398;BME280;2213;49.720;7.296;2022-08-19T03:34:59;97818.00;;;20.01;100.00
4398;BME280;2213;49.720;7.296;2022-08-19T03:37:29;97812.69;;;20.01;100.00
4398;BME280;2213;49.720;7.296;2022-08-19T03:39:58;97813.22;;;20.03;100.00
4398;BME280;2213;49.720;7.296;2022-08-19T03:42:28;97810.56;;;20.03;100.00
4398;BME280;2213;49.720;7.296;2022-08-19T03:45:18;97812.38;;;19.97;100.00
4398;BME280;2213;49.720;7.296;2022-08-19T03:47:47;97809.69;;;19.92;100.00
4398;BME280;2213;49.720;7.296;2022-08-19T03:50:16;97807.81;;;19.93;100.00
4398;BME280;2213;49.720;7.296;2022-08-19T03:52:49;97806.19;;;19.87;100.00
4398;BME280;2213;49.720;7.296;2022-08-19T03:55:19;97812.53;;;19.86;100.00
4398;BME280;2213;49.720;7.296;2022-08-19T03:57:49;97807.50;;;19.84;100.00
4398;BME280;2213;49.720;7.296;2022-08-19T04:00:25;97808.00;;;19.81;100.00
4398;BME280;2213;49.720;7.296;2022-08-19T04:02:54;97810.59;;;19.76;100.00
4398;BME280;2213;49.720;7.296;2022-08-19T04:05:27;97812.94;;;19.73;100.00
4398;BME280;2213;49.720;7.296;2022-08-19T04:07:57;97820.91;;;19.73;100.00
4398;BME280;2213;49.720;7.296;2022-08-19T04:10:26;97829.16;;;19.71;100.00
4398;BME280;2213;49.720;7.296;2022-08-19T04:12:58;97823.53;;;19.68;100.00
4398;BME280;2213;49.720;7.296;2022-08-19T04:15:27;97830.69;;;19.67;100.00
4398;BME280;2213;49.720;7.296;2022-08-19T04:17:59;97837.03;;;19.66;100.00
4398;BME280;2213;49.720;7.296;2022-08-19T04:20:28;97838.59;;;19.62;100.00
4398;BME280;2213;49.720;7.296;2022-08-19T04:22:58;97827.66;;;19.58;100.00
4398;BME280;2213;49.720;7.296;2022-08-19T04:25:27;97837.16;;;19.54;100.00
4398;BME280;2213;49.720;7.296;2022-08-19T04:27:57;97829.22;;;19.54;100.00
4398;BME280;2213;49.720;7.296;2022-08-19T04:30:25;97831.31;;;19.52;100.00
4398;BME280;2213;49.720;7.296;2022-08-19T04:32:55;97828.38;;;19.49;100.00
4398;BME280;2213;49.720;7.296;2022-08-19T04:35:25;97829.91;;;19.45;100.00
4398;BME280;2213;49.720;7.296;2022-08-19T04:37:55;97833.38;;;19.45;100.00
4398;BME280;2213;49.720;7.296;2022-08-19T04:40:23;97832.34;;;19.46;100.00
4398;BME280;2213;49.720;7.296;2022-08-19T04:43:11;97834.97;;;19.46;100.00
4398;BME280;2213;49.720;7.296;2022-08-19T04:45:43;97828.56;;;19.42;100.00
4398;BME280;2213;49.720;7.296;2022-08-19T04:48:12;97840.22;;;19.41;100.00
4398;BME280;2213;49.720;7.296;2022-08-19T04:50:55;97839.41;;;19.41;100.00
4398;BME280;2213;49.720;7.296;2022-08-19T04:53:26;97838.56;;;19.40;100.00
4398;BME280;2213;49.720;7.296;2022-08-19T04:56:08;97837.00;;;19.39;100.00
4398;BME280;2213;49.720;7.296;2022-08-19T04:58:41;97836.41;;;19.37;100.00
4398;BME280;2213;49.720;7.296;2022-08-19T05:01:13;97837.97;;;19.33;100.00
4398;BME280;2213;49.720;7.296;2022-08-19T05:03:42;97845.88;;;19.28;100.00
4398;BME280;2213;49.720;7.296;2022-08-19T05:06:15;97845.88;;;19.28;100.00
4398;BME280;2213;49.720;7.296;2022-08-19T05:08:46;97847.50;;;19.29;100.00
4398;BME280;2213;49.720;7.296;2022-08-19T05:11:19;97840.88;;;19.32;100.00
4398;BME280;2213;49.720;7.296;2022-08-19T05:13:55;97843.75;;;19.30;100.00
4398;BME280;2213;49.720;7.296;2022-08-19T05:16:26;97846.19;;;19.32;100.00
4398;BME280;2213;49.720;7.296;2022-08-19T05:18:56;97843.00;;;19.30;100.00
4398;BME280;2213;49.720;7.296;2022-08-19T05:21:43;97851.72;;;19.30;100.00
4398;BME280;2213;49.720;7.296;2022-08-19T05:24:29;97854.38;;;19.30;100.00
4398;BME280;2213;49.720;7.296;2022-08-19T05:27:02;97850.69;;;19.31;100.00
4398;BME280;2213;49.720;7.296;2022-08-19T05:29:34;97855.44;;;19.29;100.00
4398;BME280;2213;49.720;7.296;2022-08-19T05:32:06;97853.59;;;19.30;100.00
4398;BME280;2213;49.720;7.296;2022-08-19T05:34:37;97851.69;;;19.25;100.00
4398;BME280;2213;49.720;7.296;2022-08-19T05:37:06;97850.06;;;19.24;100.00
4398;BME280;2213;49.720;7.296;2022-08-19T05:39:37;97852.19;;;19.22;100.00
4398;BME280;2213;49.720;7.296;2022-08-19T05:42:10;97848.94;;;19.20;100.00
4398;BME280;2213;49.720;7.296;2022-08-19T05:44:43;97850.25;;;19.18;100.00
4398;BME280;2213;49.720;7.296;2022-08-19T05:47:13;97857.41;;;19.17;100.00
4398;BME280;2213;49.720;7.296;2022-08-19T05:49:42;97851.88;;;19.19;100.00
4398;BME280;2213;49.720;7.296;2022-08-19T05:52:14;97858.75;;;19.20;100.00
4398;BME280;2213;49.720;7.296;2022-08-19T05:54:46;97854.75;;;19.17;100.00
4398;BME280;2213;49.720;7.296;2022-08-19T05:57:18;97855.56;;;19.18;100.00
4398;BME280;2213;49.720;7.296;2022-08-19T05:59:49;97860.63;;;19.19;100.00
4398;BME280;2213;49.720;7.296;2022-08-19T06:02:24;97856.34;;;19.18;100.00
4398;BME280;2213;49.720;7.296;2022-08-19T06:04:53;97861.34;;;19.15;100.00
4398;BME280;2213;49.720;7.296;2022-08-19T06:07:23;97861.91;;;19.17;100.00
4398;BME280;2213;49.720;7.296;2022-08-19T06:09:52;97861.09;;;19.16;100.00
4398;BME280;2213;49.720;7.296;2022-08-19T06:12:29;97868.00;;;19.17;100.00
4398;BME280;2213;49.720;7.296;2022-08-19T06:15:05;97866.16;;;19.18;100.00
4398;BME280;2213;49.720;7.296;2022-08-19T06:17:37;97870.66;;;19.17;100.00
4398;BME280;2213;49.720;7.296;2022-08-19T06:20:10;97886.56;;;19.17;100.00
4398;BME280;2213;49.720;7.296;2022-08-19T06:22:43;97890.03;;;19.18;100.00
4398;BME280;2213;49.720;7.296;2022-08-19T06:25:15;97888.66;;;19.15;100.00
4398;BME280;2213;49.720;7.296;2022-08-19T06:27:44;97888.19;;;19.18;100.00
4398;BME280;2213;49.720;7.296;2022-08-19T06:30:35;97895.09;;;19.19;100.00
4398;BME280;2213;49.720;7.296;2022-08-19T06:33:05;97903.81;;;19.20;100.00
4398;BME280;2213;49.720;7.296;2022-08-19T06:35:38;97908.09;;;19.21;100.00
4398;BME280;2213;49.720;7.296;2022-08-19T06:38:08;97909.44;;;19.23;100.00
4398;BME280;2213;49.720;7.296;2022-08-19T06:40:39;97911.63;;;19.26;100.00
4398;BME280;2213;49.720;7.296;2022-08-19T06:43:07;97928.06;;;19.28;100.00
4398;BME280;2213;49.720;7.296;2022-08-19T06:45:39;97928.94;;;19.34;100.00
4398;BME280;2213;49.720;7.296;2022-08-19T06:48:09;97925.78;;;19.37;100.00
4398;BME280;2213;49.720;7.296;2022-08-19T06:50:37;97929.00;;;19.39;100.00
4398;BME280;2213;49.720;7.296;2022-08-19T06:53:07;97923.78;;;19.44;100.00
4398;BME280;2213;49.720;7.296;2022-08-19T06:55:38;97934.72;;;19.47;100.00
4398;BME280;2213;49.720;7.296;2022-08-19T06:58:08;97930.22;;;19.48;100.00
4398;BME280;2213;49.720;7.296;2022-08-19T07:00:40;97922.31;;;19.53;100.00
4398;BME280;2213;49.720;7.296;2022-08-19T07:03:09;97928.47;;;19.58;100.00
4398;BME280;2213;49.720;7.296;2022-08-19T07:05:41;97934.66;;;19.64;100.00
4398;BME280;2213;49.720;7.296;2022-08-19T07:08:12;97934.47;;;19.71;100.00
4398;BME280;2213;49.720;7.296;2022-08-19T07:10:44;97930.03;;;19.76;100.00
4398;BME280;2213;49.720;7.296;2022-08-19T07:13:13;97929.28;;;19.81;100.00
4398;BME280;2213;49.720;7.296;2022-08-19T07:15:42;97928.28;;;19.87;100.00
4398;BME280;2213;49.720;7.296;2022-08-19T07:18:13;97931.53;;;19.94;100.00
4398;BME280;2213;49.720;7.296;2022-08-19T07:20:46;97937.47;;;20.01;100.00
4398;BME280;2213;49.720;7.296;2022-08-19T07:23:15;97925.59;;;20.08;100.00
4398;BME280;2213;49.720;7.296;2022-08-19T07:25:44;97924.59;;;20.15;100.00
4398;BME280;2213;49.720;7.296;2022-08-19T07:28:19;97925.47;;;20.25;100.00
4398;BME280;2213;49.720;7.296;2022-08-19T07:30:52;97927.97;;;20.32;100.00
4398;BME280;2213;49.720;7.296;2022-08-19T07:33:22;97934.16;;;20.42;100.00
4398;BME280;2213;49.720;7.296;2022-08-19T07:35:54;97934.81;;;20.54;100.00
4398;BME280;2213;49.720;7.296;2022-08-19T07:38:22;97932.78;;;20.67;100.00
4398;BME280;2213;49.720;7.296;2022-08-19T07:40:51;97929.13;;;20.78;100.00
4398;BME280;2213;49.720;7.296;2022-08-19T07:43:21;97922.03;;;20.88;100.00
4398;BME280;2213;49.720;7.296;2022-08-19T07:46:02;97927.72;;;21.02;100.00
4398;BME280;2213;49.720;7.296;2022-08-19T07:48:32;97927.56;;;21.14;100.00
4398;BME280;2213;49.720;7.296;2022-08-19T07:51:05;97919.34;;;21.25;100.00
4398;BME280;2213;49.720;7.296;2022-08-19T07:53:37;97922.34;;;21.39;100.00
4398;BME280;2213;49.720;7.296;2022-08-19T07:56:06;97924.53;;;21.47;100.00
4398;BME280;2213;49.720;7.296;2022-08-19T07:58:42;97917.34;;;21.52;100.00
4398;BME280;2213;49.720;7.296;2022-08-19T08:01:18;97915.81;;;21.62;100.00
4398;BME280;2213;49.720;7.296;2022-08-19T08:03:48;97918.50;;;21.72;100.00
4398;BME280;2213;49.720;7.296;2022-08-19T08:06:34;97925.97;;;21.80;100.00
4398;BME280;2213;49.720;7.296;2022-08-19T08:09:24;97924.41;;;21.89;100.00
4398;BME280;2213;49.720;7.296;2022-08-19T08:11:57;97932.69;;;21.97;100.00
4398;BME280;2213;49.720;7.296;2022-08-19T08:14:40;97937.28;;;22.07;100.00
4398;BME280;2213;49.720;7.296;2022-08-19T08:17:17;97936.72;;;22.15;100.00
4398;BME280;2213;49.720;7.296;2022-08-19T08:20:07;97938.88;;;22.23;100.00
4398;BME280;2213;49.720;7.296;2022-08-19T08:22:36;97933.03;;;22.31;99.45
4398;BME280;2213;49.720;7.296;2022-08-19T08:25:24;97922.94;;;22.38;99.20
4398;BME280;2213;49.720;7.296;2022-08-19T08:27:59;97934.38;;;22.44;95.52
4398;BME280;2213;49.720;7.296;2022-08-19T08:30:29;97919.19;;;22.49;92.12
4398;BME280;2213;49.720;7.296;2022-08-19T08:33:01;97923.47;;;22.55;91.94
4398;BME280;2213;49.720;7.296;2022-08-19T08:35:31;97926.13;;;22.61;91.92
4398;BME280;2213;49.720;7.296;2022-08-19T08:38:01;97925.06;;;22.67;90.25
4398;BME280;2213;49.720;7.296;2022-08-19T08:40:42;97924.81;;;22.73;90.62
4398;BME280;2213;49.720;7.296;2022-08-19T08:43:26;97917.88;;;22.77;89.49
4398;BME280;2213;49.720;7.296;2022-08-19T08:46:04;97920.28;;;22.84;88.20
4398;BME280;2213;49.720;7.296;2022-08-19T08:48:41;97924.53;;;22.90;88.42
4398;BME280;2213;49.720;7.296;2022-08-19T08:51:34;97911.72;;;22.92;82.23
4398;BME280;2213;49.720;7.296;2022-08-19T08:54:08;97909.84;;;22.97;83.14
4398;BME280;2213;49.720;7.296;2022-08-19T08:56:39;97903.44;;;23.03;81.82
4398;BME280;2213;49.720;7.296;2022-08-19T08:59:16;97903.41;;;23.08;81.18
4398;BME280;2213;49.720;7.296;2022-08-19T09:01:47;97899.69;;;23.15;80.14
4398;BME280;2213;49.720;7.296;2022-08-19T09:04:18;97893.50;;;23.19;79.96
4398;BME280;2213;49.720;7.296;2022-08-19T09:06:55;97891.91;;;23.23;78.41
4398;BME280;2213;49.720;7.296;2022-08-19T09:09:54;97887.63;;;23.27;78.16
4398;BME280;2213;49.720;7.296;2022-08-19T09:12:37;97891.06;;;23.33;76.87
4398;BME280;2213;49.720;7.296;2022-08-19T09:15:13;97891.31;;;23.36;77.09
4398;BME280;2213;49.720;7.296;2022-08-19T09:17:43;97885.44;;;23.39;78.03
4398;BME280;2213;49.720;7.296;2022-08-19T09:20:21;97890.78;;;23.44;78.10
4398;BME280;2213;49.720;7.296;2022-08-19T09:22:52;97888.63;;;23.51;76.86
4398;BME280;2213;49.720;7.296;2022-08-19T09:25:22;97877.69;;;23.53;76.87
4398;BME280;2213;49.720;7.296;2022-08-19T09:27:56;97893.94;;;23.57;76.52
4398;BME280;2213;49.720;7.296;2022-08-19T09:30:42;97882.16;;;23.63;76.40
4398;BME280;2213;49.720;7.296;2022-08-19T09:33:11;97896.81;;;23.70;73.81
4398;BME280;2213;49.720;7.296;2022-08-19T09:35:41;97886.38;;;23.74;73.54
4398;BME280;2213;49.720;7.296;2022-08-19T09:38:20;97897.31;;;23.77;73.80
4398;BME280;2213;49.720;7.296;2022-08-19T09:40:49;97894.91;;;23.76;71.09
4398;BME280;2213;49.720;7.296;2022-08-19T09:43:17;97896.47;;;23.82;71.90
4398;BME280;2213;49.720;7.296;2022-08-19T09:46:00;97894.59;;;23.87;72.34
4398;BME280;2213;49.720;7.296;2022-08-19T09:48:29;97888.97;;;23.89;70.44
4398;BME280;2213;49.720;7.296;2022-08-19T09:51:05;97888.94;;;23.94;70.12
4398;BME280;2213;49.720;7.296;2022-08-19T09:53:38;97894.00;;;23.95;70.28
4398;BME280;2213;49.720;7.296;2022-08-19T09:56:08;97895.84;;;24.00;70.10
4398;BME280;2213;49.720;7.296;2022-08-19T09:58:37;97900.38;;;24.04;71.31
4398;BME280;2213;49.720;7.296;2022-08-19T10:01:07;97903.28;;;24.08;71.54
4398;BME280;2213;49.720;7.296;2022-08-19T10:03:37;97898.97;;;24.12;67.73
4398;BME280;2213;49.720;7.296;2022-08-19T10:06:07;97899.53;;;24.14;66.55
4398;BME280;2213;49.720;7.296;2022-08-19T10:08:45;97887.75;;;24.15;67.27
4398;BME280;2213;49.720;7.296;2022-08-19T10:11:18;97891.19;;;24.21;66.34
4398;BME280;2213;49.720;7.296;2022-08-19T10:14:00;97902.38;;;24.23;63.68
4398;BME280;2213;49.720;7.296;2022-08-19T10:16:29;97895.41;;;24.27;65.07
4398;BME280;2213;49.720;7.296;2022-08-19T10:19:06;97895.09;;;24.33;65.16
4398;BME280;2213;49.720;7.296;2022-08-19T10:21:37;97888.66;;;24.39;66.64
4398;BME280;2213;49.720;7.296;2022-08-19T10:24:08;97891.00;;;24.46;65.29
4398;BME280;2213;49.720;7.296;2022-08-19T10:26:40;97887.25;;;24.47;64.96
4398;BME280;2213;49.720;7.296;2022-08-19T10:29:13;97890.44;;;24.49;64.44
4398;BME280;2213;49.720;7.296;2022-08-19T10:32:00;97894.41;;;24.51;65.86
4398;BME280;2213;49.720;7.296;2022-08-19T10:34:30;97881.59;;;24.53;66.45
4398;BME280;2213;49.720;7.296;2022-08-19T10:37:04;97877.78;;;24.60;66.67
4398;BME280;2213;49.720;7.296;2022-08-19T10:39:38;97882.00;;;24.66;64.52
4398;BME280;2213;49.720;7.296;2022-08-19T10:42:10;97881.44;;;24.69;61.98
4398;BME280;2213;49.720;7.296;2022-08-19T10:44:40;97881.16;;;24.70;63.29
4398;BME280;2213;49.720;7.296;2022-08-19T10:47:10;97874.50;;;24.68;63.71
4398;BME280;2213;49.720;7.296;2022-08-19T10:49:53;97872.56;;;24.73;64.28
4398;BME280;2213;49.720;7.296;2022-08-19T10:52:46;97866.06;;;24.79;64.19
4398;BME280;2213;49.720;7.296;2022-08-19T10:55:21;97872.72;;;24.87;63.70
4398;BME280;2213;49.720;7.296;2022-08-19T10:58:12;97876.72;;;24.89;61.42
4398;BME280;2213;49.720;7.296;2022-08-19T11:00:43;97866.22;;;24.93;62.19
4398;BME280;2213;49.720;7.296;2022-08-19T11:03:12;97864.31;;;24.98;63.13
4398;BME280;2213;49.720;7.296;2022-08-19T11:05:41;97859.69;;;25.04;63.44
4398;BME280;2213;49.720;7.296;2022-08-19T11:08:11;97856.44;;;25.07;62.20
4398;BME280;2213;49.720;7.296;2022-08-19T11:10:50;97857.94;;;25.18;62.06
4398;BME280;2213;49.720;7.296;2022-08-19T11:13:21;97862.38;;;25.28;62.21
4398;BME280;2213;49.720;7.296;2022-08-19T11:16:00;97844.88;;;25.35;57.70
4398;BME280;2213;49.720;7.296;2022-08-19T11:18:38;97849.59;;;25.43;57.46
4398;BME280;2213;49.720;7.296;2022-08-19T11:21:10;97857.28;;;25.50;57.73
4398;BME280;2213;49.720;7.296;2022-08-19T11:23:41;97843.34;;;25.53;58.35
4398;BME280;2213;49.720;7.296;2022-08-19T11:26:11;97855.88;;;25.58;57.23
4398;BME280;2213;49.720;7.296;2022-08-19T11:28:40;97840.78;;;25.62;57.00
4398;BME280;2213;49.720;7.296;2022-08-19T11:31:11;97846.91;;;25.67;56.51
4398;BME280;2213;49.720;7.296;2022-08-19T11:33:40;97841.97;;;25.74;56.60
4398;BME280;2213;49.720;7.296;2022-08-19T11:36:14;97846.47;;;25.79;56.27
4398;BME280;2213;49.720;7.296;2022-08-19T11:38:45;97844.00;;;25.82;56.38
4398;BME280;2213;49.720;7.296;2022-08-19T11:41:18;97846.91;;;25.86;57.08
4398;BME280;2213;49.720;7.296;2022-08-19T11:43:47;97842.53;;;25.90;56.62
4398;BME280;2213;49.720;7.296;2022-08-19T11:46:17;97835.25;;;25.95;56.35
4398;BME280;2213;49.720;7.296;2022-08-19T11:48:45;97830.88;;;25.99;54.77
4398;BME280;2213;49.720;7.296;2022-08-19T11:51:19;97833.19;;;26.06;54.74
4398;BME280;2213;49.720;7.296;2022-08-19T11:53:50;97836.38;;;26.08;54.05
4398;BME280;2213;49.720;7.296;2022-08-19T11:56:19;97834.97;;;26.11;54.05
4398;BME280;2213;49.720;7.296;2022-08-19T11:58:50;97839.47;;;26.15;54.39
4398;BME280;2213;49.720;7.296;2022-08-19T12:01:23;97835.16;;;26.19;54.72
4398;BME280;2213;49.720;7.296;2022-08-19T12:03:54;97847.75;;;26.19;53.64
4398;BME280;2213;49.720;7.296;2022-08-19T12:06:26;97846.44;;;26.16;53.07
4398;BME280;2213;49.720;7.296;2022-08-19T12:08:59;97841.09;;;26.16;53.63
4398;BME280;2213;49.720;7.296;2022-08-19T12:11:29;97838.41;;;26.16;53.25
4398;BME280;2213;49.720;7.296;2022-08-19T12:14:01;97842.13;;;26.20;53.75
4398;BME280;2213;49.720;7.296;2022-08-19T12:16:31;97844.50;;;26.22;53.28
4398;BME280;2213;49.720;7.296;2022-08-19T12:19:08;97839.44;;;26.20;53.44
4398;BME280;2213;49.720;7.296;2022-08-19T12:21:40;97832.38;;;26.24;54.21
4398;BME280;2213;49.720;7.296;2022-08-19T12:24:09;97837.75;;;26.24;53.34
4398;BME280;2213;49.720;7.296;2022-08-19T12:26:38;97830.81;;;26.23;53.84
4398;BME280;2213;49.720;7.296;2022-08-19T12:29:20;97830.22;;;26.26;54.11
4398;BME280;2213;49.720;7.296;2022-08-19T12:31:58;97818.63;;;26.31;53.49
4398;BME280;2213;49.720;7.296;2022-08-19T12:34:32;97821.50;;;26.34;54.03
4398;BME280;2213;49.720;7.296;2022-08-19T12:37:04;97818.91;;;26.29;53.42
4398;BME280;2213;49.720;7.296;2022-08-19T12:39:41;97821.50;;;26.34;52.76
4398;BME280;2213;49.720;7.296;2022-08-19T12:42:14;97819.31;;;26.36;52.55
4398;BME280;2213;49.720;7.296;2022-08-19T12:44:44;97822.50;;;26.38;53.10
4398;BME280;2213;49.720;7.296;2022-08-19T12:47:13;97816.53;;;26.41;52.54
4398;BME280;2213;49.720;7.296;2022-08-19T12:49:42;97805.31;;;26.39;53.57
4398;BME280;2213;49.720;7.296;2022-08-19T12:52:23;97812.16;;;26.45;52.54
4398;BME280;2213;49.720;7.296;2022-08-19T12:54:57;97808.78;;;26.40;53.35
4398;BME280;2213;49.720;7.296;2022-08-19T12:57:27;97799.66;;;26.41;53.30
4398;BME280;2213;49.720;7.296;2022-08-19T13:00:03;97809.81;;;26.44;53.41
4398;BME280;2213;49.720;7.296;2022-08-19T13:02:34;97809.22;;;26.47;53.49
4398;BME280;2213;49.720;7.296;2022-08-19T13:05:10;97817.34;;;26.56;50.77
4398;BME280;2213;49.720;7.296;2022-08-19T13:07:40;97812.41;;;26.63;49.85
4398;BME280;2213;49.720;7.296;2022-08-19T13:10:15;97803.69;;;26.71;49.90
4398;BME280;2213;49.720;7.296;2022-08-19T13:12:48;97811.34;;;26.77;50.04
4398;BME280;2213;49.720;7.296;2022-08-19T13:15:19;97805.00;;;26.87;49.24
4398;BME280;2213;49.720;7.296;2022-08-19T13:17:52;97791.28;;;26.88;48.77
4398;BME280;2213;49.720;7.296;2022-08-19T13:20:24;97803.22;;;26.96;48.78
4398;BME280;2213;49.720;7.296;2022-08-19T13:22:53;97799.25;;;27.07;48.54
4398;BME280;2213;49.720;7.296;2022-08-19T13:25:25;97798.53;;;27.15;48.63
4398;BME280;2213;49.720;7.296;2022-08-19T13:27:54;97798.31;;;27.25;46.93
4398;BME280;2213;49.720;7.296;2022-08-19T13:30:24;97795.91;;;27.37;47.88
4398;BME280;2213;49.720;7.296;2022-08-19T13:33:10;97807.09;;;27.44;48.18
4398;BME280;2213;49.720;7.296;2022-08-19T13:35:47;97795.78;;;27.42;48.87
4398;BME280;2213;49.720;7.296;2022-08-19T13:38:24;97803.66;;;27.39;48.61
4398;BME280;2213;49.720;7.296;2022-08-19T13:40:55;97800.69;;;27.40;47.85
4398;BME280;2213;49.720;7.296;2022-08-19T13:43:26;97798.91;;;27.49;46.97
4398;BME280;2213;49.720;7.296;2022-08-19T13:45:56;97792.53;;;27.59;47.48